Time;durP1;ratioP1;P1;durP2;ratioP2;P2;SDS_P1;SDS_P2;PMS_P1;PMS_P2;Temp;Humidity;BMP_temperature;BMP_pressure;BME280_temperature;BME280_humidity;BME280_pressure;Samples;Min_cycle;Max_cycle;Signal;HPM_P1;HPM_P2
2022/07/06 00:00:30;;;;;;;;;3.00;3.00;;;;;19.04;42.76;102016.81;5035263;28;73321;-49
2022/07/06 00:02:55;;;;;;;;;5.00;4.00;;;;;19.01;42.59;102015.13;5033521;28;60100;-51
2022/07/06 00:05:21;;;;;;;;;3.50;3.00;;;;;18.98;43.31;102020.56;5034127;28;45392;-50
2022/07/06 00:07:46;;;;;;;;;3.00;3.00;;;;;18.97;43.21;102025.00;5033611;28;45245;-48
2022/07/06 00:10:11;;;;;;;;;7.00;5.00;;;;;18.95;43.62;102029.53;5034654;28;65681;-46
2022/07/06 00:12:37;;;;;;;;;5.75;4.00;;;;;18.92;43.24;102027.00;5032118;28;45325;-48
2022/07/06 00:15:02;;;;;;;;;3.00;2.50;;;;;18.91;43.58;102027.94;5035097;28;48711;-46
2022/07/06 00:17:28;;;;;;;;;5.50;4.00;;;;;18.87;43.12;102023.66;5029552;28;45256;-48
2022/07/06 00:19:53;;;;;;;;;4.25;4.25;;;;;18.86;43.68;102024.59;5029530;28;68290;-45
2022/07/06 00:22:18;;;;;;;;;6.00;5.50;;;;;18.84;43.50;102025.59;5038015;28;45430;-46
2022/07/06 00:24:44;;;;;;;;;5.75;5.75;;;;;18.82;43.76;102028.28;5033228;28;45491;-47
2022/07/06 00:27:09;;;;;;;;;9.00;6.50;;;;;18.78;44.29;102026.66;5037369;28;45428;-49
2022/07/06 00:29:34;;;;;;;;;7.25;5.00;;;;;18.72;44.39;102016.31;5031025;28;45343;-47
2022/07/06 00:32:00;;;;;;;;;5.25;5.25;;;;;18.71;45.00;102019.88;5027903;28;45767;-47
2022/07/06 00:34:25;;;;;;;;;5.00;5.00;;;;;18.70;44.67;102024.34;5023732;28;45462;-50
2022/07/06 00:36:51;;;;;;;;;8.50;5.00;;;;;18.71;44.03;102018.09;5035936;28;49053;-45
2022/07/06 00:39:18;;;;;;;;;5.00;5.00;;;;;18.70;44.69;102023.47;5033949;28;68631;-47
2022/07/06 00:41:44;;;;;;;;;7.75;6.00;;;;;18.69;44.60;102016.44;5032756;28;45431;-47
2022/07/06 00:44:09;;;;;;;;;15.25;7.50;;;;;18.67;44.04;102019.16;5029683;28;71996;-44
2022/07/06 00:46:35;;;;;;;;;5.50;5.00;;;;;18.66;44.65;102019.22;5029808;28;46097;-47
2022/07/06 00:49:00;;;;;;;;;10.00;5.50;;;;;18.62;44.92;102025.56;5027624;28;45470;-46
2022/07/06 00:51:30;;;;;;;;;6.00;6.00;;;;;18.59;45.20;102019.47;5025220;28;45851;-45
2022/07/06 00:53:59;;;;;;;;;7.25;7.00;;;;;18.54;44.75;102018.78;5038193;28;46008;-46
2022/07/06 00:56:25;;;;;;;;;9.25;6.00;;;;;18.52;45.84;102012.69;5041114;28;46193;-45
2022/07/06 00:58:51;;;;;;;;;6.00;5.25;;;;;18.52;45.56;102018.00;5048384;28;45869;-45
2022/07/06 01:01:16;;;;;;;;;6.00;5.00;;;;;18.52;45.08;102027.72;5037625;28;65796;-45
2022/07/06 01:03:41;;;;;;;;;5.25;5.00;;;;;18.49;44.63;102018.09;5034805;28;71669;-45
2022/07/06 01:06:07;;;;;;;;;6.00;3.75;;;;;18.48;45.74;102023.47;5040275;28;73926;-44
2022/07/06 01:08:32;;;;;;;;;7.00;5.25;;;;;18.46;45.29;102020.00;5040189;28;46979;-44
2022/07/06 01:10:57;;;;;;;;;7.00;4.00;;;;;18.45;46.09;102013.84;5039136;28;62846;-45
2022/07/06 01:13:23;;;;;;;;;7.75;4.75;;;;;18.47;46.20;102022.59;5036968;28;58856;-45
2022/07/06 01:15:48;;;;;;;;;4.00;4.00;;;;;18.48;45.46;102020.81;5032828;28;45967;-44
2022/07/06 01:18:14;;;;;;;;;4.00;4.00;;;;;18.45;45.48;102027.13;5031710;28;56837;-48
2022/07/06 01:20:39;;;;;;;;;6.00;5.25;;;;;18.42;45.44;102029.03;5039577;28;45197;-45
2022/07/06 01:23:04;;;;;;;;;6.25;5.75;;;;;18.39;45.71;102037.94;5036042;28;45484;-46
2022/07/06 01:25:30;;;;;;;;;4.50;4.50;;;;;18.35;45.50;102037.19;5037840;28;45719;-48
2022/07/06 01:27:56;;;;;;;;;4.50;4.50;;;;;18.33;45.98;102035.53;5035306;28;45302;-46
2022/07/06 01:30:21;;;;;;;;;5.75;4.50;;;;;18.29;46.43;102025.97;5034976;28;45578;-46
2022/07/06 01:32:47;;;;;;;;;6.25;4.00;;;;;18.26;46.14;102032.25;5030999;28;59501;-47
2022/07/06 01:35:14;;;;;;;;;3.00;3.00;;;;;18.24;46.06;102012.91;5033641;28;45415;-45
2022/07/06 01:37:40;;;;;;;;;5.50;3.75;;;;;18.26;46.72;102015.50;5034031;28;45305;-47
2022/07/06 01:40:08;;;;;;;;;3.50;3.50;;;;;18.26;46.08;102023.47;5017018;28;45617;-47
2022/07/06 01:42:34;;;;;;;;;7.50;5.00;;;;;18.23;46.32;102027.06;5031682;28;45629;-50
2022/07/06 01:44:59;;;;;;;;;2.50;2.50;;;;;18.21;46.50;102027.13;5031290;28;45304;-47
2022/07/06 01:47:24;;;;;;;;;2.75;2.75;;;;;18.21;46.55;102023.63;5038361;28;45259;-51
2022/07/06 01:49:50;;;;;;;;;5.50;4.75;;;;;18.18;46.79;102027.25;5034126;28;56806;-50
2022/07/06 01:52:15;;;;;;;;;3.50;3.50;;;;;18.16;46.87;102023.78;5037345;28;45383;-52
2022/07/06 01:54:41;;;;;;;;;3.50;3.50;;;;;18.14;46.76;102030.94;5030939;28;67103;-51
2022/07/06 01:57:06;;;;;;;;;5.50;4.50;;;;;18.14;47.26;102028.28;5032777;28;45395;-51
2022/07/06 01:59:32;;;;;;;;;4.50;4.00;;;;;18.15;46.78;102021.19;5037540;28;54041;-49
2022/07/06 02:01:57;;;;;;;;;3.75;3.75;;;;;18.14;46.73;102017.69;5033259;28;45263;-51
2022/07/06 02:04:23;;;;;;;;;6.75;5.00;;;;;18.13;47.02;102018.63;5028575;28;71219;-51
2022/07/06 02:06:48;;;;;;;;;4.00;1.00;;;;;18.12;47.97;102021.34;5034574;28;65309;-50
2022/07/06 02:09:14;;;;;;;;;3.50;3.50;;;;;18.10;47.06;102020.53;5034566;28;59715;-48
2022/07/06 02:11:39;;;;;;;;;6.25;4.25;;;;;18.08;47.11;102020.59;5034008;28;45445;-49
2022/07/06 02:14:05;;;;;;;;;4.00;4.00;;;;;18.08;47.63;102027.66;5035903;28;46084;-50
2022/07/06 02:16:30;;;;;;;;;4.25;4.25;;;;;18.08;47.26;102020.59;5037561;28;46684;-45
2022/07/06 02:18:55;;;;;;;;;7.00;4.25;;;;;18.09;46.57;102008.19;5035842;28;45679;-45
2022/07/06 02:21:21;;;;;;;;;3.50;3.50;;;;;18.07;47.16;102015.34;5033477;28;64619;-46
2022/07/06 02:23:46;;;;;;;;;5.50;4.75;;;;;18.04;47.41;102013.66;5029923;28;47079;-47
2022/07/06 02:26:12;;;;;;;;;7.75;5.00;;;;;18.05;47.58;102011.88;5032259;28;45471;-44
2022/07/06 02:28:37;;;;;;;;;4.25;4.25;;;;;18.05;47.30;102011.88;4995757;28;1126195;-44
2022/07/06 02:31:02;;;;;;;;;4.75;4.00;;;;;18.05;47.19;102003.94;5037616;28;71888;-44
2022/07/06 02:33:28;;;;;;;;;4.00;4.00;;;;;18.02;47.56;102008.44;5035147;28;74587;-50
2022/07/06 02:35:53;;;;;;;;;3.50;2.75;;;;;18.01;47.23;102001.41;5035367;28;45633;-46
2022/07/06 02:38:18;;;;;;;;;5.50;5.00;;;;;18.02;47.64;101992.56;5033325;28;66644;-45
2022/07/06 02:40:44;;;;;;;;;4.50;4.50;;;;;18.02;47.35;101992.56;5026971;28;45368;-45
2022/07/06 02:43:09;;;;;;;;;4.50;4.50;;;;;18.03;47.60;101993.41;5029361;28;45612;-46
2022/07/06 02:45:35;;;;;;;;;6.00;4.00;;;;;18.03;47.65;101993.41;5032186;28;66631;-44
2022/07/06 02:48:00;;;;;;;;;4.75;4.00;;;;;18.00;47.97;102004.97;5038047;28;45330;-44
2022/07/06 02:50:25;;;;;;;;;5.50;4.00;;;;;18.00;47.74;102004.97;5032074;28;65883;-51
2022/07/06 02:52:51;;;;;;;;;3.00;3.00;;;;;17.99;48.01;102016.50;5032037;28;67155;-50
2022/07/06 02:55:16;;;;;;;;;6.00;5.00;;;;;17.97;47.77;102017.47;5037275;28;45202;-46
2022/07/06 02:57:42;;;;;;;;;4.50;4.50;;;;;17.91;48.04;102010.63;5026737;28;59252;-47
2022/07/06 03:00:09;;;;;;;;;5.75;5.00;;;;;17.94;47.88;102017.59;5036863;28;45215;-48
2022/07/06 03:02:34;;;;;;;;;5.00;5.00;;;;;17.93;47.77;102023.81;5033608;28;45467;-44
2022/07/06 03:05:00;;;;;;;;;3.50;3.50;;;;;17.91;47.90;102026.50;5035651;28;45481;-49
2022/07/06 03:07:25;;;;;;;;;4.75;4.00;;;;;17.90;48.12;102022.16;5037492;28;45931;-47
2022/07/06 03:09:51;;;;;;;;;3.25;2.00;;;;;17.90;48.28;102027.44;5032521;28;45301;-47
2022/07/06 03:12:16;;;;;;;;;5.00;4.50;;;;;17.91;47.56;102023.84;5035463;28;52431;-51
2022/07/06 03:14:42;;;;;;;;;6.00;4.50;;;;;17.90;48.00;102027.44;5029803;28;45494;-49
2022/07/06 03:17:07;;;;;;;;;5.25;3.50;;;;;17.88;47.66;102021.31;5032100;28;45423;-51
2022/07/06 03:19:33;;;;;;;;;6.50;5.00;;;;;17.85;47.70;102024.06;5028651;28;45340;-50
2022/07/06 03:21:58;;;;;;;;;3.50;3.50;;;;;17.83;48.28;102026.75;5032015;28;45273;-51
2022/07/06 03:24:23;;;;;;;;;6.25;5.25;;;;;17.83;48.69;102031.19;5030122;28;45258;-48
2022/07/06 03:26:49;;;;;;;;;6.50;4.50;;;;;17.81;48.15;102028.59;5030593;28;50434;-49
2022/07/06 03:29:14;;;;;;;;;6.25;5.50;;;;;17.81;48.57;102033.03;5031286;28;45821;-47
2022/07/06 03:31:39;;;;;;;;;4.00;3.50;;;;;17.81;48.50;102030.38;5035077;28;58969;-47
2022/07/06 03:34:06;;;;;;;;;5.00;5.00;;;;;17.82;48.68;102029.47;5030158;28;69353;-48
2022/07/06 03:36:31;;;;;;;;;6.75;6.50;;;;;17.82;48.10;102034.75;5030298;28;45392;-51
2022/07/06 03:38:56;;;;;;;;;6.50;5.75;;;;;17.81;48.31;102033.91;5029468;28;45497;-49
2022/07/06 03:41:22;;;;;;;;;6.25;5.25;;;;;17.80;48.34;102032.16;5036698;28;74403;-48
2022/07/06 03:43:47;;;;;;;;;6.25;4.75;;;;;17.82;48.68;102035.63;5033710;28;47873;-48
2022/07/06 03:46:12;;;;;;;;;7.00;5.75;;;;;17.82;48.44;102043.56;5031618;28;55025;-47
2022/07/06 03:48:38;;;;;;;;;5.00;5.00;;;;;17.80;48.38;102032.16;5032590;28;63526;-45
2022/07/06 03:51:03;;;;;;;;;4.00;4.00;;;;;17.79;48.77;102037.50;5027199;28;70332;-46
2022/07/06 03:53:28;;;;;;;;;7.75;6.00;;;;;17.77;48.70;102037.56;5024714;28;63268;-46
2022/07/06 03:58:37;;;;;;;;;6.00;6.00;;;;;17.70;48.86;102036.06;5026191;28;45202;-46
2022/07/06 04:01:03;;;;;;;;;6.25;5.75;;;;;17.70;49.37;102036.06;5032106;28;68002;-46
2022/07/06 04:03:28;;;;;;;;;5.00;5.00;;;;;17.69;48.90;102044.94;5033168;28;63388;-46
2022/07/06 04:05:53;;;;;;;;;9.00;6.25;;;;;17.69;48.82;102044.94;5030934;28;45327;-45
2022/07/06 04:08:19;;;;;;;;;9.25;5.00;;;;;17.70;48.86;102045.78;5021773;28;59669;-47
2022/07/06 04:10:45;;;;;;;;;8.75;5.00;;;;;17.68;49.09;102045.84;5031509;28;46512;-49
2022/07/06 04:13:10;;;;;;;;;5.00;4.75;;;;;17.68;48.68;102047.63;5030278;28;45404;-44
2022/07/06 04:15:36;;;;;;;;;5.00;5.00;;;;;17.67;48.98;102049.44;5022326;28;60365;-45
2022/07/06 04:18:01;;;;;;;;;7.75;5.75;;;;;17.65;49.16;102052.13;5034061;28;64886;-50
2022/07/06 04:20:26;;;;;;;;;6.00;6.00;;;;;17.68;48.71;102061.72;5030879;28;67951;-48
2022/07/06 04:22:52;;;;;;;;;5.50;5.50;;;;;17.69;49.26;102058.19;5027488;28;70403;-49
2022/07/06 04:25:17;;;;;;;;;8.75;6.00;;;;;17.70;49.24;102053.75;5033810;28;45356;-44
2022/07/06 04:27:43;;;;;;;;;5.25;5.00;;;;;17.70;49.15;102044.00;5027895;28;58581;-47
2022/07/06 04:30:09;;;;;;;;;7.50;5.50;;;;;17.73;48.86;102054.50;5032176;28;45453;-48
2022/07/06 04:32:35;;;;;;;;;7.00;6.00;;;;;17.74;49.36;102053.59;5031690;28;45384;-46
2022/07/06 04:35:01;;;;;;;;;9.00;5.75;;;;;17.76;49.20;102049.09;5046285;28;45383;-46
2022/07/06 04:37:27;;;;;;;;;5.00;5.00;;;;;17.77;49.13;102050.81;5030378;28;45303;-47
2022/07/06 04:39:52;;;;;;;;;8.75;5.75;;;;;17.80;49.32;102049.84;5027575;28;73813;-49
2022/07/06 04:42:17;;;;;;;;;8.00;8.00;;;;;17.83;49.08;102055.03;5032034;28;48463;-49
2022/07/06 04:44:43;;;;;;;;;3.00;3.00;;;;;17.83;48.96;102042.66;5033091;28;45498;-50
2022/07/06 04:47:08;;;;;;;;;6.00;5.75;;;;;17.87;49.46;102038.13;5028768;28;45692;-49
2022/07/06 04:49:34;;;;;;;;;8.25;7.25;;;;;17.90;49.48;102050.38;5035247;28;59435;-47
2022/07/06 04:51:59;;;;;;;;;7.75;5.75;;;;;17.92;49.10;102044.13;5034977;28;72196;-47
2022/07/06 04:54:24;;;;;;;;;10.50;6.50;;;;;17.95;48.76;102053.75;5026008;28;45395;-45
2022/07/06 04:56:50;;;;;;;;;9.75;5.75;;;;;17.95;48.84;102049.28;5031250;28;62491;-45
2022/07/06 04:59:16;;;;;;;;;7.00;5.00;;;;;17.96;48.52;102052.81;5026186;28;72929;-49
2022/07/06 05:01:41;;;;;;;;;7.00;7.00;;;;;17.94;49.00;102055.53;5034252;28;45490;-48
2022/07/06 05:04:07;;;;;;;;;7.50;5.00;;;;;17.95;49.26;102053.75;5031198;28;45494;-47
2022/07/06 05:06:33;;;;;;;;;5.00;4.50;;;;;17.96;48.97;102055.47;5019370;28;45438;-48
2022/07/06 05:09:02;;;;;;;;;6.50;5.50;;;;;17.98;48.77;102051.84;5024105;28;45499;-47
2022/07/06 05:11:27;;;;;;;;;5.75;5.75;;;;;18.00;48.92;102052.63;5036756;28;45302;-49
2022/07/06 05:13:53;;;;;;;;;9.50;7.50;;;;;18.01;48.80;102050.88;5028955;28;45289;-49
2022/07/06 05:16:18;;;;;;;;;8.25;6.75;;;;;18.03;49.50;102049.03;5032926;28;45463;-46
2022/07/06 05:18:44;;;;;;;;;9.25;8.00;;;;;18.08;48.99;102044.44;5031725;28;45421;-47
2022/07/06 05:21:09;;;;;;;;;7.00;5.75;;;;;18.14;49.05;102048.63;5036676;28;64022;-47
2022/07/06 05:23:35;;;;;;;;;11.75;10.25;;;;;18.18;48.93;102056.41;5034035;28;45703;-47
2022/07/06 05:26:00;;;;;;;;;16.75;12.00;;;;;18.24;48.62;102059.72;5039710;28;45377;-47
2022/07/06 05:28:26;;;;;;;;;9.00;7.00;;;;;18.28;48.84;102054.25;5036659;28;45311;-46
2022/07/06 05:30:51;;;;;;;;;17.50;13.50;;;;;18.31;48.78;102051.50;5025403;28;45384;-45
2022/07/06 05:33:16;;;;;;;;;4.00;1.25;;;;;18.36;48.76;102051.31;5035930;28;45443;-47
2022/07/06 05:35:42;;;;;;;;;8.25;6.75;;;;;18.41;48.52;102054.66;5032699;28;53642;-49
2022/07/06 05:38:07;;;;;;;;;11.25;7.75;;;;;18.46;48.49;102055.31;5035492;28;75881;-46
2022/07/06 05:40:33;;;;;;;;;7.50;7.00;;;;;18.50;48.42;102056.06;5036600;28;60559;-46
2022/07/06 05:42:58;;;;;;;;;8.25;6.75;;;;;18.52;48.24;102062.19;5037994;28;45356;-43
2022/07/06 05:45:24;;;;;;;;;10.75;7.25;;;;;18.54;48.23;102068.31;5035400;28;45450;-49
2022/07/06 05:50:33;;;;;;;;;9.50;8.25;;;;;18.56;47.69;102062.00;5037459;28;45972;-44
2022/07/06 05:53:01;;;;;;;;;7.50;7.00;;;;;18.60;47.69;102068.06;5028276;28;45246;-44
2022/07/06 05:55:27;;;;;;;;;9.00;6.75;;;;;18.66;47.78;102069.59;5035439;28;45400;-48
2022/07/06 05:57:53;;;;;;;;;7.00;6.50;;;;;18.68;47.68;102073.03;5035133;28;45630;-47
2022/07/06 06:00:20;;;;;;;;;7.25;6.25;;;;;18.67;47.49;102071.31;5034969;28;45757;-49
2022/07/06 06:02:45;;;;;;;;;7.75;6.50;;;;;18.69;47.72;102075.63;5037585;28;47323;-49
2022/07/06 06:05:11;;;;;;;;;8.00;6.00;;;;;18.72;47.64;102075.53;5031962;28;45410;-47
2022/07/06 06:07:37;;;;;;;;;10.25;8.00;;;;;18.79;47.46;102084.97;5031600;28;45432;-45
2022/07/06 06:10:07;;;;;;;;;10.00;6.75;;;;;18.83;47.42;102080.44;5035621;28;45391;-50
2022/07/06 06:12:32;;;;;;;;;14.00;9.25;;;;;18.88;47.36;102077.59;5034065;28;45409;-48
2022/07/06 06:14:58;;;;;;;;;8.50;8.25;;;;;18.88;47.31;102081.09;5049437;28;70653;-47
2022/07/06 06:17:23;;;;;;;;;10.50;9.25;;;;;18.90;47.27;102087.22;5031428;28;53029;-46
2022/07/06 06:19:48;;;;;;;;;9.75;8.00;;;;;18.93;47.04;102087.09;5035331;28;73279;-46
2022/07/06 06:22:14;;;;;;;;;13.75;9.50;;;;;18.98;47.37;102092.19;5031483;28;55642;-44
2022/07/06 06:24:39;;;;;;;;;10.00;8.75;;;;;19.01;46.71;102085.91;5029500;28;68897;-47
2022/07/06 06:27:05;;;;;;;;;8.00;7.00;;;;;19.03;46.76;102082.25;5036901;28;45418;-43
2022/07/06 06:29:30;;;;;;;;;9.25;9.00;;;;;19.09;46.69;102087.34;5031963;28;45446;-51
2022/07/06 06:31:55;;;;;;;;;10.75;6.75;;;;;19.14;46.83;102087.13;5035509;28;61454;-47
2022/07/06 06:34:21;;;;;;;;;7.75;7.25;;;;;19.17;46.74;102079.03;5032514;28;69010;-44
2022/07/06 06:36:46;;;;;;;;;9.75;8.50;;;;;19.21;46.54;102078.00;5030507;28;46876;-44
2022/07/06 06:39:11;;;;;;;;;8.50;7.00;;;;;19.25;46.24;102079.59;5028878;28;69668;-47
2022/07/06 06:41:37;;;;;;;;;8.75;6.75;;;;;19.30;45.89;102082.91;5039755;28;45442;-48
2022/07/06 06:44:02;;;;;;;;;11.25;8.00;;;;;19.34;45.71;102081.84;5026413;28;58050;-47
2022/07/06 06:46:28;;;;;;;;;7.25;7.00;;;;;19.36;45.96;102081.78;5032961;28;46631;-47
2022/07/06 06:48:53;;;;;;;;;11.50;10.50;;;;;19.37;46.27;102088.84;5031268;28;45941;-50
2022/07/06 06:51:20;;;;;;;;;10.75;8.25;;;;;19.42;46.07;102088.63;5025749;28;63863;-49
2022/07/06 06:53:45;;;;;;;;;11.75;6.75;;;;;19.48;45.80;102093.69;5029501;28;45364;-45
2022/07/06 06:56:11;;;;;;;;;7.00;7.00;;;;;19.55;45.30;102089.84;5034666;28;46230;-45
2022/07/06 06:58:36;;;;;;;;;8.25;6.50;;;;;19.62;45.19;102096.63;5034024;28;65148;-44
2022/07/06 07:01:01;;;;;;;;;8.50;5.00;;;;;19.66;44.79;102106.16;5033217;28;67117;-44
2022/07/06 07:03:27;;;;;;;;;7.75;5.00;;;;;19.70;44.49;102098.91;5033767;28;45577;-44
2022/07/06 07:05:52;;;;;;;;;11.50;5.50;;;;;19.77;44.44;102099.56;5038737;28;45944;-45
2022/07/06 07:08:17;;;;;;;;;9.75;6.00;;;;;19.83;44.19;102092.19;5037291;28;50277;-48
2022/07/06 07:10:43;;;;;;;;;9.00;6.00;;;;;19.91;43.85;102097.16;5034981;28;47336;-44
2022/07/06 07:13:08;;;;;;;;;8.25;5.75;;;;;19.96;44.12;102100.47;5033840;28;45514;-45
2022/07/06 07:15:34;;;;;;;;;6.25;6.00;;;;;20.02;43.80;102094.00;5034958;28;66881;-44
2022/07/06 07:17:59;;;;;;;;;6.50;5.25;;;;;20.09;43.66;102104.28;5027897;28;46099;-46
2022/07/06 07:20:25;;;;;;;;;5.50;4.75;;;;;20.13;43.77;102099.69;5032559;28;61015;-46
2022/07/06 07:22:50;;;;;;;;;6.00;6.00;;;;;20.17;43.38;102103.06;5036575;28;59967;-45
2022/07/06 07:25:16;;;;;;;;;6.00;6.00;;;;;20.22;42.95;102103.72;5037282;28;46431;-47
2022/07/06 07:27:41;;;;;;;;;5.00;5.00;;;;;20.29;43.02;102102.50;5036833;28;60077;-48
2022/07/06 07:30:07;;;;;;;;;8.75;6.00;;;;;20.38;43.45;102106.53;5034235;28;58870;-47
2022/07/06 07:32:32;;;;;;;;;8.25;6.50;;;;;20.47;43.06;102103.47;5036401;28;45470;-46
2022/07/06 07:34:58;;;;;;;;;5.00;5.00;;;;;20.52;42.47;102097.91;5032092;28;46144;-46
2022/07/06 07:37:23;;;;;;;;;6.50;4.50;;;;;20.57;42.58;102095.91;5034213;28;59806;-46
2022/07/06 07:39:48;;;;;;;;;9.00;6.00;;;;;20.60;42.63;102091.31;5029781;28;53833;-48
2022/07/06 07:42:14;;;;;;;;;6.50;5.00;;;;;20.68;42.15;102096.28;5038824;28;45427;-48
2022/07/06 07:44:40;;;;;;;;;6.00;6.00;;;;;20.74;41.88;102095.16;5029569;28;64770;-49
2022/07/06 07:47:06;;;;;;;;;5.00;5.00;;;;;20.80;41.67;102085.06;5035372;28;45274;-48
2022/07/06 07:49:32;;;;;;;;;7.00;5.25;;;;;20.88;41.51;102092.69;5035383;28;45534;-49
2022/07/06 07:51:57;;;;;;;;;8.25;6.00;;;;;20.94;41.78;102087.03;5038786;28;45309;-50
2022/07/06 07:54:22;;;;;;;;;9.50;8.00;;;;;21.01;41.70;102093.78;5032374;28;73863;-49
2022/07/06 07:56:48;;;;;;;;;7.25;6.25;;;;;21.03;41.76;102091.94;5037658;28;71848;-47
2022/07/06 07:59:14;;;;;;;;;10.25;6.00;;;;;21.04;41.93;102085.66;5036037;28;45482;-50
2022/07/06 08:01:39;;;;;;;;;7.00;7.00;;;;;21.11;41.32;102091.53;5034719;28;45385;-48
2022/07/06 08:04:05;;;;;;;;;10.00;7.25;;;;;21.16;41.35;102092.19;5031344;28;46931;-47
2022/07/06 08:06:30;;;;;;;;;4.75;4.75;;;;;21.19;40.90;102085.81;5037470;28;45384;-49
2022/07/06 08:08:56;;;;;;;;;10.25;5.50;;;;;21.24;41.15;102081.97;5035265;28;45486;-49
2022/07/06 08:11:21;;;;;;;;;8.00;7.50;;;;;21.30;41.30;102079.94;5036063;28;45642;-48
2022/07/06 08:13:47;;;;;;;;;7.50;6.00;;;;;21.36;41.26;102079.66;5036876;28;45420;-49
2022/07/06 08:16:12;;;;;;;;;10.75;5.75;;;;;21.42;41.06;102079.31;5033465;28;45437;-48
2022/07/06 08:18:38;;;;;;;;;6.75;5.00;;;;;21.48;40.97;102081.72;5029146;28;45427;-51
2022/07/06 08:21:03;;;;;;;;;7.50;6.00;;;;;21.55;40.52;102085.78;5034064;28;45337;-50
2022/07/06 08:23:29;;;;;;;;;8.50;8.00;;;;;21.59;40.66;102087.34;5032268;28;46434;-49
2022/07/06 08:25:54;;;;;;;;;10.00;5.75;;;;;21.61;40.45;102088.13;5035345;28;46316;-50
2022/07/06 08:28:19;;;;;;;;;10.25;6.25;;;;;21.63;40.69;102090.72;5034236;28;67079;-50
2022/07/06 08:30:45;;;;;;;;;8.00;5.75;;;;;21.68;40.31;102087.81;5028207;28;69299;-46
2022/07/06 08:33:10;;;;;;;;;10.00;7.25;;;;;21.75;40.42;102095.41;5033844;28;69351;-44
2022/07/06 08:35:35;;;;;;;;;7.75;6.00;;;;;21.82;39.52;102090.63;5037720;28;46381;-49
2022/07/06 08:38:01;;;;;;;;;8.75;5.50;;;;;21.86;40.25;102086.84;5029416;28;60210;-49
2022/07/06 08:40:33;;;;;;;;;7.25;5.50;;;;;21.89;40.08;102077.84;5034943;28;45406;-47
2022/07/06 08:42:59;;;;;;;;;11.00;7.00;;;;;21.93;40.06;102079.38;5030131;28;47162;-46
2022/07/06 08:45:25;;;;;;;;;9.50;6.00;;;;;22.00;39.91;102091.44;5037212;28;45894;-50
2022/07/06 08:47:50;;;;;;;;;10.50;7.00;;;;;22.05;39.79;102080.53;5032595;28;45387;-48
2022/07/06 08:50:16;;;;;;;;;11.50;6.25;;;;;22.11;39.39;102089.03;5026339;28;62192;-50
2022/07/06 08:52:42;;;;;;;;;9.50;7.75;;;;;22.18;39.51;102082.44;5036398;28;45422;-49
2022/07/06 08:55:10;;;;;;;;;9.75;6.00;;;;;22.28;39.29;102087.31;5032939;28;45489;-49
2022/07/06 08:57:39;;;;;;;;;10.25;7.75;;;;;22.32;39.37;102079.03;5038909;28;45376;-49
2022/07/06 09:00:25;;;;;;;;;9.50;8.00;;;;;22.39;39.42;102076.06;5039186;28;45470;-48
2022/07/06 09:02:53;;;;;;;;;8.00;6.00;;;;;22.45;39.13;102073.03;5035713;28;45573;-46
2022/07/06 09:05:21;;;;;;;;;6.00;6.00;;;;;22.47;39.15;102069.34;5037007;28;45341;-47
2022/07/06 09:07:49;;;;;;;;;9.00;6.00;;;;;22.52;38.92;102067.28;5036294;28;45320;-48
2022/07/06 09:10:17;;;;;;;;;10.00;6.00;;;;;22.58;38.63;102067.88;5032309;28;45940;-49
2022/07/06 09:12:42;;;;;;;;;13.25;11.00;;;;;22.65;38.95;102064.78;5029603;28;46737;-48
2022/07/06 09:15:08;;;;;;;;;5.75;5.00;;;;;22.76;38.65;102072.16;5034702;28;71746;-47
2022/07/06 09:17:38;;;;;;;;;5.50;4.50;;;;;22.85;38.65;102074.28;5033564;28;45426;-45
2022/07/06 09:20:07;;;;;;;;;10.25;6.00;;;;;22.94;38.11;102071.09;5036799;28;45366;-48
2022/07/06 09:22:32;;;;;;;;;10.25;6.00;;;;;23.03;38.36;102059.00;5033491;28;45912;-50
2022/07/06 09:25:09;;;;;;;;;7.25;4.50;;;;;23.13;38.31;102064.72;5031125;28;45530;-49
2022/07/06 09:27:49;;;;;;;;;5.75;4.00;;;;;23.23;37.49;102062.34;5030882;28;45601;-47
2022/07/06 09:30:16;;;;;;;;;7.00;5.75;;;;;23.33;37.14;102054.66;5038181;28;45511;-49
2022/07/06 09:32:46;;;;;;;;;5.25;3.50;;;;;23.43;37.10;102055.84;5029926;28;46221;-45
2022/07/06 09:35:47;;;;;;;;;6.00;4.50;;;;;23.57;37.57;102060.31;5038335;28;45743;-48
2022/07/06 09:38:14;;;;;;;;;7.25;5.50;;;;;23.66;36.92;102055.28;5036279;28;45337;-50
2022/07/06 09:40:44;;;;;;;;;6.25;5.75;;;;;23.76;36.99;102060.94;5040053;28;45450;-46
2022/07/06 09:43:21;;;;;;;;;8.00;8.00;;;;;23.83;36.88;102048.94;5036784;28;45446;-50
2022/07/06 09:45:52;;;;;;;;;8.75;7.75;;;;;24.20;36.60;102061.78;5032002;28;45388;-48
2022/07/06 09:48:22;;;;;;;;;9.25;6.00;;;;;24.82;36.19;102056.00;5038144;28;45572;-48
2022/07/06 09:50:51;;;;;;;;;5.25;5.25;;;;;25.90;35.70;102056.72;5051168;28;46067;-46
2022/07/06 09:53:17;;;;;;;;;3.00;1.25;;;;;27.37;32.71;102057.56;5052483;28;47241;-50
2022/07/06 09:55:44;;;;;;;;;5.75;2.75;;;;;28.90;31.83;102060.53;5037876;28;45796;-49
2022/07/06 09:58:10;;;;;;;;;6.00;4.75;;;;;30.41;29.96;102054.69;5036244;28;45431;-52
2022/07/06 10:00:35;;;;;;;;;3.50;3.00;;;;;31.83;28.77;102055.00;5029155;28;61333;-51
2022/07/06 10:03:01;;;;;;;;;7.50;3.00;;;;;33.12;26.93;102058.41;5031015;28;46224;-47
2022/07/06 10:05:29;;;;;;;;;3.25;1.00;;;;;33.53;25.46;102058.72;5033188;28;45297;-51
2022/07/06 10:07:57;;;;;;;;;2.00;2.00;;;;;32.85;26.80;102059.41;5037317;28;45379;-46
2022/07/06 10:10:25;;;;;;;;;33.00;29.00;;;;;32.30;26.48;102058.47;5033474;28;45431;-49
2022/07/06 10:12:52;;;;;;;;;4.25;4.00;;;;;32.71;25.42;102058.06;5021704;28;46623;-48
2022/07/06 10:15:18;;;;;;;;;6.00;3.00;;;;;33.43;26.08;102045.28;5038724;28;45277;-50
2022/07/06 10:17:44;;;;;;;;;2.00;2.00;;;;;34.13;25.34;102043.41;5034665;28;45506;-52
2022/07/06 10:20:11;;;;;;;;;2.25;2.25;;;;;34.93;24.15;102041.00;5034011;28;68298;-51
2022/07/06 10:22:37;;;;;;;;;4.75;3.00;;;;;35.64;22.76;102049.38;5038034;28;46801;-48
2022/07/06 10:25:04;;;;;;;;;4.00;3.00;;;;;36.38;21.07;102045.53;5036450;28;61477;-50
2022/07/06 10:27:29;;;;;;;;;3.00;3.00;;;;;37.13;21.62;102052.09;5035736;28;45458;-49
2022/07/06 10:29:55;;;;;;;;;3.25;3.00;;;;;37.67;20.71;102049.16;5034666;28;45368;-50
2022/07/06 10:32:21;;;;;;;;;6.50;4.00;;;;;38.04;19.23;102051.94;5026632;28;73006;-50
2022/07/06 10:34:47;;;;;;;;;3.50;3.50;;;;;37.98;19.75;102040.75;5034139;28;45234;-49
2022/07/06 10:37:26;;;;;;;;;3.50;3.00;;;;;37.21;20.67;102044.69;5026645;28;69234;-48
2022/07/06 10:42:39;;;;;;;;;4.50;4.00;;;;;36.31;19.82;102059.03;5033082;28;45343;-52
2022/07/06 10:45:05;;;;;;;;;4.50;3.25;;;;;36.89;20.68;102055.91;5035019;28;45237;-50
2022/07/06 10:47:30;;;;;;;;;3.50;2.75;;;;;37.81;19.88;102047.47;5032733;28;45361;-50
2022/07/06 10:49:59;;;;;;;;;3.75;2.00;;;;;39.00;19.14;102051.69;5034717;28;66327;-52
2022/07/06 10:52:47;;;;;;;;;3.75;3.25;;;;;40.06;17.03;102051.50;5035457;28;46183;-52
2022/07/06 10:55:31;;;;;;;;;7.50;3.75;;;;;40.15;19.12;102043.94;5036383;28;45940;-47
2022/07/06 10:57:57;;;;;;;;;3.00;3.00;;;;;39.93;18.16;102040.47;5033578;28;45316;-50
2022/07/06 11:00:22;;;;;;;;;5.75;4.00;;;;;39.82;18.19;102039.97;5034108;28;46125;-49
2022/07/06 11:02:48;;;;;;;;;4.50;3.00;;;;;39.34;17.83;102041.81;5028320;28;64562;-51
2022/07/06 11:05:42;;;;;;;;;3.00;3.00;;;;;38.17;19.04;102039.28;5036437;28;73026;-49
2022/07/06 11:08:10;;;;;;;;;5.75;4.25;;;;;37.25;19.58;102045.16;5030626;28;45626;-49
2022/07/06 11:10:48;;;;;;;;;7.50;4.75;;;;;36.80;20.00;102031.41;5033189;28;45281;-48
2022/07/06 11:13:28;;;;;;;;;8.25;4.00;;;;;36.47;19.96;102034.34;5036561;28;45933;-52
2022/07/06 11:16:02;;;;;;;;;3.75;3.75;;;;;35.57;20.81;102037.50;5028633;28;71926;-51
2022/07/06 11:18:27;;;;;;;;;5.00;4.75;;;;;34.50;20.71;102026.69;5028397;28;45309;-52
2022/07/06 11:21:18;;;;;;;;;4.75;3.00;;;;;34.03;21.90;102027.22;5037738;28;71703;-51
2022/07/06 11:23:47;;;;;;;;;4.75;4.00;;;;;34.82;21.72;102021.47;5036456;28;45507;-52
2022/07/06 11:26:13;;;;;;;;;5.50;4.00;;;;;35.82;20.72;102021.97;5036621;28;45964;-50
2022/07/06 11:28:38;;;;;;;;;7.50;5.00;;;;;35.85;20.61;102016.16;5032383;28;56340;-46